Hauptseite
METAR-TAF:

METAR-TAF

Flughäfen :

Athen, Griechenland

Eleftherios-Venizelos-Flughafen Athen

Breite: 37-56N, Länge: 023-56E, Höhe: 94 m

Beobachtung

Neuester Wetterbericht von vor 21 Minuten, um 13:50 UTC
Wind 6 kt aus Südost
Temperatur 24°C
Luftfeuchtigkeit 57%
Luftdruck 1017 hPa
Sichtweite 10 km oder mehr
keine Wolken unter 1500 m und keine Kumulonimbus oder Gewitterwolken

METAR: LGAV 201350Z 13006KT CAVOK 24/15 Q1017 NOSIG

Zeit: 17:11 (14:11 UTC)

Prognose

Neuester Wetterbericht von vor 3 Stunden und 11 Minuten, um 11:00 UTC
Gültige Prognose vom 20 um 12 UTC bis 21 um 12 UTC
Wind 5 kt aus unterschiedlichen Richtungen
Sichtweite 10 km oder mehr
Leicht bewölkt in der Höhe von 2000 ft

TAF: LGAV 201100Z 2012/2112 VRB05KT 9999 FEW020

Wetterbeobachtungen und Prognosen von mehr als 4000 Flughäfen (METAR und TAF Bericht).

Die verfügbaren Stationen werden durch gelbe und rote Markierungen auf der Karte dargestellt.

Führen Sie die Maus auf sie, um den Namen der Station zu sehen.

Darauf klicken, um die Beobachtung von Wetterbeobachtungen und Prognosen zu sehen.

Um die Karte zu ändern : klicken Sie auf den grünen Tasten mit einem schwarzen Kreuz Zum Vergrößern, auf den grünen Button mit einem Gedankenstrich zu verkleinern, oder auf die grünen Pfeile für benachbarte Karten.


METAR-TAF: